createdAt,value
2019-04-11T00:01:53.227Z,102325.17
2019-04-11T00:04:28.261Z,102323.42
2019-04-11T00:07:03.660Z,102324.00
2019-04-11T00:09:38.775Z,102319.30
2019-04-11T00:12:12.652Z,102316.73
2019-04-11T00:14:46.915Z,102319.81
2019-04-11T00:17:21.627Z,102319.35
2019-04-11T00:19:55.890Z,102315.92
2019-04-11T00:22:29.904Z,102324.17
2019-04-11T00:25:03.706Z,102325.92
2019-04-11T00:27:37.688Z,102328.23
2019-04-11T00:30:12.283Z,102325.63
2019-04-11T00:32:45.987Z,102329.67
2019-04-11T00:35:19.996Z,102326.25
2019-04-11T00:37:54.116Z,102328.50
2019-04-11T00:40:29.041Z,102325.95
2019-04-11T00:43:03.180Z,102323.84
2019-04-11T00:45:37.978Z,102328.86
2019-04-11T00:48:11.872Z,102327.63
2019-04-11T00:50:46.086Z,102329.53
2019-04-11T00:53:20.478Z,102327.73
2019-04-11T00:55:55.643Z,102330.45
2019-04-11T00:58:29.830Z,102333.53
2019-04-11T01:01:04.025Z,102329.17
2019-04-11T01:03:38.077Z,102332.61
2019-04-11T01:06:12.182Z,102334.00
2019-04-11T01:08:46.093Z,102336.66
2019-04-11T01:11:19.774Z,102338.56
2019-04-11T01:13:55.401Z,102340.47
2019-04-11T01:16:35.212Z,102337.90
2019-04-11T01:19:09.040Z,102342.77
2019-04-11T01:21:42.793Z,102338.83
2019-04-11T01:24:17.683Z,102344.62
2019-04-11T01:26:51.837Z,102344.21
2019-04-11T01:29:25.766Z,102344.30
2019-04-11T01:32:02.359Z,102346.09
2019-04-11T01:34:37.089Z,102347.02
2019-04-11T01:37:11.388Z,102344.39
2019-04-11T01:39:51.599Z,102343.48
2019-04-11T01:42:25.425Z,102345.49
2019-04-11T01:44:59.182Z,102350.82
2019-04-11T01:47:55.824Z,102345.90
2019-04-11T01:50:32.699Z,102346.31
2019-04-11T01:53:06.889Z,102351.74
2019-04-11T01:55:40.864Z,102354.09
2019-04-11T01:58:14.953Z,102351.47
2019-04-11T02:01:06.370Z,102353.31
2019-04-11T02:03:49.836Z,102359.98
2019-04-11T02:06:23.733Z,102353.31
2019-04-11T02:08:57.780Z,102358.70
2019-04-11T02:11:31.834Z,102356.91
2019-04-11T02:14:12.433Z,102363.11
2019-04-11T02:16:41.798Z,102357.47
2019-04-11T02:19:16.218Z,102361.47
2019-04-11T02:21:52.357Z,102361.92
2019-04-11T02:24:34.154Z,102359.83
2019-04-11T02:27:21.126Z,102360.80
2019-04-11T02:29:55.282Z,102363.98
2019-04-11T02:32:29.452Z,102364.89
2019-04-11T02:35:06.471Z,102368.56
2019-04-11T02:37:39.933Z,102369.08
2019-04-11T02:40:15.439Z,102365.23
2019-04-11T02:42:49.856Z,102374.14
2019-04-11T02:45:36.280Z,102376.81
2019-04-11T02:48:01.616Z,102375.02
2019-04-11T02:50:37.141Z,102376.81
2019-04-11T02:53:12.556Z,102383.88
2019-04-11T02:55:47.462Z,102379.11
2019-04-11T02:58:22.882Z,102385.31
2019-04-11T03:00:59.382Z,102390.79
2019-04-11T03:03:34.145Z,102387.25
2019-04-11T03:06:09.350Z,102391.25
2019-04-11T03:08:44.395Z,102391.75
2019-04-11T03:11:19.123Z,102390.42
2019-04-11T03:13:55.182Z,102392.98
2019-04-11T03:16:42.968Z,102397.40
2019-04-11T03:19:24.116Z,102392.98
2019-04-11T03:21:43.885Z,102392.02
2019-04-11T03:24:17.702Z,102393.03
2019-04-11T03:26:54.311Z,102392.48
2019-04-11T03:29:28.916Z,102386.69
2019-04-11T03:32:40.138Z,102395.97
2019-04-11T03:37:40.096Z,102394.95
2019-04-11T03:40:15.437Z,102395.36
2019-04-11T03:42:45.251Z,102395.83
2019-04-11T03:45:26.388Z,102396.65
2019-04-11T03:47:56.057Z,102396.60
2019-04-11T03:50:18.888Z,102405.92
2019-04-11T03:52:51.948Z,102402.95
2019-04-11T03:55:27.998Z,102408.73
2019-04-11T03:58:03.774Z,102399.45
2019-04-11T04:00:43.184Z,102410.12
2019-04-11T04:03:14.371Z,102403.05
2019-04-11T04:05:48.747Z,102410.27
2019-04-11T04:08:24.705Z,102407.23
2019-04-11T04:11:26.684Z,102407.28
2019-04-11T04:14:10.465Z,102408.66
2019-04-11T04:17:04.097Z,102413.70
2019-04-11T04:19:51.713Z,102415.69
2019-04-11T04:22:52.271Z,102409.58
2019-04-11T04:25:28.447Z,102415.97
2019-04-11T04:28:03.114Z,102422.34
2019-04-11T04:30:38.444Z,102423.71
2019-04-11T04:33:14.493Z,102424.17
2019-04-11T04:35:49.743Z,102428.67
2019-04-11T04:38:24.806Z,102433.03
2019-04-11T04:41:14.980Z,102437.63
2019-04-11T04:43:36.565Z,102431.92
2019-04-11T04:46:28.037Z,102443.55
2019-04-11T04:48:48.856Z,102433.98
2019-04-11T04:51:24.116Z,102437.11
2019-04-11T04:53:57.880Z,102440.77
2019-04-11T04:56:34.683Z,102438.52
2019-04-11T04:59:10.101Z,102433.65
2019-04-11T05:01:44.263Z,102441.69
2019-04-11T05:04:19.300Z,102439.94
2019-04-11T05:06:55.181Z,102440.81
2019-04-11T05:09:29.910Z,102441.59
2019-04-11T05:12:05.408Z,102446.43
2019-04-11T05:14:39.456Z,102449.25
2019-04-11T05:17:14.937Z,102449.09
2019-04-11T05:19:49.059Z,102449.92
2019-04-11T05:22:23.017Z,102455.06
2019-04-11T05:24:59.299Z,102456.77
2019-04-11T05:27:33.567Z,102457.92
2019-04-11T05:30:08.294Z,102461.25
2019-04-11T05:32:42.966Z,102467.31
2019-04-11T05:35:16.771Z,102468.00
2019-04-11T05:37:51.473Z,102462.45
2019-04-11T05:40:25.976Z,102468.16
2019-04-11T05:42:59.913Z,102467.51
2019-04-11T05:45:34.221Z,102471.69
2019-04-11T05:48:13.398Z,102477.94
2019-04-11T05:50:49.541Z,102474.47
2019-04-11T05:53:52.915Z,102471.69
2019-04-11T05:56:29.910Z,102480.06
2019-04-11T05:59:10.585Z,102474.34
2019-04-11T06:01:49.417Z,102481.94
2019-04-11T06:04:32.316Z,102485.14
2019-04-11T06:07:13.086Z,102485.56
2019-04-11T06:09:48.423Z,102489.14
2019-04-11T06:12:50.615Z,102488.73
2019-04-11T06:15:29.183Z,102495.45
2019-04-11T06:18:07.461Z,102491.37
2019-04-11T06:20:47.225Z,102491.92
2019-04-11T06:23:27.964Z,102489.23
2019-04-11T06:26:12.362Z,102488.22
2019-04-11T06:28:47.336Z,102502.45
2019-04-11T06:31:40.433Z,102510.03
2019-04-11T06:34:15.562Z,102510.50
2019-04-11T06:37:07.670Z,102511.27
2019-04-11T06:39:57.763Z,102512.90
2019-04-11T06:42:52.014Z,102515.95
2019-04-11T06:45:44.059Z,102522.06
2019-04-11T06:48:40.068Z,102518.81
2019-04-11T06:51:26.024Z,102519.61
2019-04-11T06:54:16.909Z,102527.31
2019-04-11T06:56:52.093Z,102524.81
2019-04-11T06:59:29.846Z,102530.91
2019-04-11T07:02:16.472Z,102530.68
2019-04-11T07:04:51.698Z,102531.21
2019-04-11T07:07:28.841Z,102534.45
2019-04-11T07:10:06.101Z,102532.98
2019-04-11T07:12:47.119Z,102531.48
2019-04-11T07:15:27.244Z,102540.45
2019-04-11T07:18:20.497Z,102538.11
2019-04-11T07:21:06.337Z,102546.98
2019-04-11T07:23:59.552Z,102546.62
2019-04-11T07:26:50.447Z,102548.53
2019-04-11T07:29:50.723Z,102544.97
2019-04-11T07:32:27.865Z,102549.42
2019-04-11T07:35:21.399Z,102552.41
2019-04-11T07:37:58.172Z,102551.61
2019-04-11T07:41:00.691Z,102558.03
2019-04-11T07:43:37.613Z,102555.11
2019-04-11T07:46:33.623Z,102557.22
2019-04-11T07:49:08.364Z,102559.63
2019-04-11T07:51:52.800Z,102563.14
2019-04-11T07:54:28.128Z,102568.31
2019-04-11T07:57:33.201Z,102562.69
2019-04-11T08:00:44.873Z,102560.89
2019-04-11T08:03:25.494Z,102558.03
2019-04-11T08:06:18.266Z,102556.52
2019-04-11T08:09:10.357Z,102556.52
2019-04-11T08:11:53.253Z,102556.36
2019-04-11T08:14:53.039Z,102558.46
2019-04-11T08:17:36.863Z,102558.55
2019-04-11T08:20:25.631Z,102565.39
2019-04-11T08:23:09.692Z,102565.39
2019-04-11T08:26:13.867Z,102578.45
2019-04-11T08:28:59.599Z,102579.55
2019-04-11T08:31:41.254Z,102584.84
2019-04-11T08:34:15.933Z,102582.16
2019-04-11T08:37:15.698Z,102582.20
2019-04-11T08:39:53.382Z,102585.20
2019-04-11T08:42:42.372Z,102601.62
2019-04-11T08:45:17.546Z,102600.57
2019-04-11T08:47:54.316Z,102604.13
2019-04-11T08:50:30.446Z,102608.23
2019-04-11T08:53:21.409Z,102611.05
2019-04-11T08:56:00.560Z,102609.50
2019-04-11T08:58:43.356Z,102610.90
2019-04-11T09:01:18.658Z,102605.84
2019-04-11T09:04:12.638Z,102610.59
2019-04-11T09:06:47.161Z,102616.17
2019-04-11T09:09:58.035Z,102619.48
2019-04-11T09:12:31.847Z,102628.42
2019-04-11T09:15:37.302Z,102621.00
2019-04-11T09:18:13.718Z,102626.48
2019-04-11T09:21:09.790Z,102615.97
2019-04-11T09:23:44.037Z,102610.70
2019-04-11T09:26:36.102Z,102602.77
2019-04-11T09:29:10.224Z,102593.48
2019-04-11T09:32:06.094Z,102591.36
2019-04-11T09:35:06.795Z,102586.73
2019-04-11T09:37:44.234Z,102584.64
2019-04-11T09:40:37.300Z,102588.61
2019-04-11T09:43:19.892Z,102589.03
2019-04-11T09:46:12.382Z,102599.13
2019-04-11T09:49:04.470Z,102604.21
2019-04-11T09:51:56.085Z,102603.69
2019-04-11T09:54:50.837Z,102606.36
2019-04-11T09:57:46.510Z,102600.29
2019-04-11T10:00:33.027Z,102600.05
2019-04-11T10:03:15.327Z,102600.14
2019-04-11T10:05:54.677Z,102592.06
2019-04-11T10:08:39.679Z,102580.94
2019-04-11T10:11:32.509Z,102578.94
2019-04-11T10:14:09.307Z,102579.86
2019-04-11T10:17:06.690Z,102580.48
2019-04-11T10:19:46.467Z,102584.22
2019-04-11T10:22:48.307Z,102597.77
2019-04-11T10:25:30.178Z,102591.07
2019-04-11T10:28:29.936Z,102606.47
2019-04-11T10:31:15.184Z,102603.78
2019-04-11T10:34:06.270Z,102602.42
2019-04-11T10:36:43.571Z,102606.05
2019-04-11T10:39:54.860Z,102616.98
2019-04-11T10:42:30.687Z,102601.90
2019-04-11T10:45:25.395Z,102594.64
2019-04-11T10:48:05.456Z,102589.54
2019-04-11T10:50:58.349Z,102595.91
2019-04-11T10:53:33.292Z,102591.80
2019-04-11T10:56:15.979Z,102580.99
2019-04-11T10:58:53.316Z,102593.13
2019-04-11T11:01:46.356Z,102577.49
2019-04-11T11:04:32.720Z,102577.11
2019-04-11T11:07:11.371Z,102581.23
2019-04-11T11:10:07.049Z,102570.44
2019-04-11T11:12:59.422Z,102570.05
2019-04-11T11:15:37.888Z,102568.19
2019-04-11T11:18:49.123Z,102567.77
2019-04-11T11:21:09.346Z,102563.11
2019-04-11T11:24:06.376Z,102570.41
2019-04-11T11:26:39.399Z,102568.06
2019-04-11T11:29:35.209Z,102563.11
2019-04-11T11:32:16.842Z,102567.08
2019-04-11T11:35:12.876Z,102562.30
2019-04-11T11:37:53.531Z,102555.03
2019-04-11T11:40:45.156Z,102565.48
2019-04-11T11:43:30.943Z,102563.65
2019-04-11T11:46:31.600Z,102582.45
2019-04-11T11:49:42.410Z,102592.28
2019-04-11T11:52:19.228Z,102589.13
2019-04-11T11:54:55.722Z,102591.80
2019-04-11T11:57:34.999Z,102587.95
2019-04-11T12:00:18.370Z,102584.78
2019-04-11T12:03:10.763Z,102588.27
2019-04-11T12:05:51.994Z,102587.21
2019-04-11T12:08:46.566Z,102588.23
2019-04-11T12:11:18.780Z,102582.94
2019-04-11T12:14:10.105Z,102579.50
2019-04-11T12:16:58.726Z,102575.47
2019-04-11T12:19:49.335Z,102566.05
2019-04-11T12:22:20.014Z,102565.36
2019-04-11T12:25:04.845Z,102568.76
2019-04-11T12:27:52.591Z,102570.50
2019-04-11T12:30:37.447Z,102562.95
2019-04-11T12:33:19.874Z,102567.03
2019-04-11T12:36:18.818Z,102564.78
2019-04-11T12:39:24.278Z,102562.50
2019-04-11T12:42:07.154Z,102563.75
2019-04-11T12:45:11.805Z,102575.87
2019-04-11T12:47:49.236Z,102567.99
2019-04-11T12:50:40.668Z,102573.91
2019-04-11T12:53:16.494Z,102554.55
2019-04-11T12:55:56.295Z,102554.74
2019-04-11T12:58:42.031Z,102549.53
2019-04-11T13:01:31.327Z,102549.97
2019-04-11T13:04:24.293Z,102545.64
2019-04-11T13:07:26.880Z,102551.19
2019-04-11T13:10:07.279Z,102546.88
2019-04-11T13:12:48.520Z,102547.64
2019-04-11T13:15:54.677Z,102549.09
2019-04-11T13:18:56.752Z,102550.25
2019-04-11T13:21:36.937Z,102549.61
2019-04-11T13:24:28.604Z,102547.78
2019-04-11T13:27:12.231Z,102555.44
2019-04-11T13:30:05.038Z,102551.87
2019-04-11T13:32:45.003Z,102562.97
2019-04-11T13:35:36.865Z,102557.09
2019-04-11T13:38:13.616Z,102561.30
2019-04-11T13:41:06.417Z,102561.32
2019-04-11T13:43:45.381Z,102556.91
2019-04-11T13:46:36.554Z,102536.96
2019-04-11T13:49:32.426Z,102533.19
2019-04-11T13:52:28.799Z,102533.23
2019-04-11T13:55:22.172Z,102536.67
2019-04-11T13:58:14.889Z,102542.03
2019-04-11T14:00:58.832Z,102543.30
2019-04-11T14:04:00.628Z,102538.44
2019-04-11T14:06:38.206Z,102532.56
2019-04-11T14:09:37.560Z,102518.66
2019-04-11T14:12:14.241Z,102510.31
2019-04-11T14:14:52.079Z,102502.59
2019-04-11T14:17:43.556Z,102505.28
2019-04-11T14:20:29.672Z,102515.34
2019-04-11T14:23:23.987Z,102510.44
2019-04-11T14:26:15.490Z,102525.13
2019-04-11T14:28:56.650Z,102522.95
2019-04-11T14:31:46.385Z,102522.55
2019-04-11T14:34:37.751Z,102525.28
2019-04-11T14:37:38.046Z,102521.59
2019-04-11T14:40:21.738Z,102501.89
2019-04-11T14:43:10.122Z,102483.83
2019-04-11T14:46:12.380Z,102480.55
2019-04-11T14:48:48.964Z,102469.36
2019-04-11T14:51:47.730Z,102475.10
2019-04-11T14:54:25.549Z,102477.84
2019-04-11T14:57:18.299Z,102476.75
2019-04-11T15:00:05.342Z,102467.30
2019-04-11T15:02:54.009Z,102463.94
2019-04-11T15:05:52.738Z,102454.13
2019-04-11T15:08:38.572Z,102458.91
2019-04-11T15:11:31.627Z,102466.33
2019-04-11T15:14:15.727Z,102468.70
2019-04-11T15:17:08.912Z,102464.06
2019-04-11T15:19:45.830Z,102462.92
2019-04-11T15:22:40.592Z,102465.27
2019-04-11T15:25:42.409Z,102461.02
2019-04-11T15:28:28.465Z,102458.83
2019-04-11T15:31:09.265Z,102455.52
2019-04-11T15:33:50.502Z,102453.49
2019-04-11T15:36:27.495Z,102458.08
2019-04-11T15:39:16.341Z,102458.84
2019-04-11T15:41:53.800Z,102456.30
2019-04-11T15:44:45.107Z,102448.69
2019-04-11T15:47:20.359Z,102449.95
2019-04-11T15:50:13.376Z,102450.77
2019-04-11T15:52:52.929Z,102451.25
2019-04-11T15:55:58.069Z,102451.98
2019-04-11T15:58:38.122Z,102455.20
2019-04-11T16:01:41.066Z,102461.14
2019-04-11T16:04:29.706Z,102456.08
2019-04-11T16:07:37.369Z,102461.13
2019-04-11T16:10:11.944Z,102460.23
2019-04-11T16:12:53.455Z,102458.88
2019-04-11T16:15:31.163Z,102459.64
2019-04-11T16:18:25.444Z,102454.55
2019-04-11T16:21:03.013Z,102468.69
2019-04-11T16:23:51.787Z,102456.30
2019-04-11T16:26:34.120Z,102460.23
2019-04-11T16:29:30.588Z,102461.38
2019-04-11T16:32:07.928Z,102459.96
2019-04-11T16:34:49.106Z,102461.35
2019-04-11T16:37:23.563Z,102466.28
2019-04-11T16:40:28.712Z,102468.88
2019-04-11T16:43:05.911Z,102464.94
2019-04-11T16:45:54.887Z,102472.92
2019-04-11T16:48:28.742Z,102472.27
2019-04-11T16:51:05.623Z,102475.44
2019-04-11T16:53:38.421Z,102469.62
2019-04-11T16:56:12.816Z,102474.70
2019-04-11T16:58:50.183Z,102479.36
2019-04-11T17:01:23.186Z,102481.55
2019-04-11T17:03:57.549Z,102483.11
2019-04-11T17:06:37.881Z,102482.94
2019-04-11T17:09:19.224Z,102477.33
2019-04-11T17:11:56.544Z,102480.23
2019-04-11T17:14:33.065Z,102482.52
2019-04-11T17:17:14.427Z,102489.77
2019-04-11T17:19:40.081Z,102487.04
2019-04-11T17:22:14.180Z,102490.14
2019-04-11T17:24:48.712Z,102491.27
2019-04-11T17:27:23.193Z,102493.36
2019-04-11T17:29:57.426Z,102492.28
2019-04-11T17:32:31.246Z,102493.92
2019-04-11T17:35:05.393Z,102501.59
2019-04-11T17:37:39.134Z,102497.70
2019-04-11T17:40:12.998Z,102498.88
2019-04-11T17:42:47.189Z,102500.09
2019-04-11T17:45:20.961Z,102498.09
2019-04-11T17:47:57.106Z,102500.73
2019-04-11T17:50:30.279Z,102505.08
2019-04-11T17:53:04.066Z,102504.12
2019-04-11T17:55:38.012Z,102513.47
2019-04-11T17:58:11.860Z,102508.55
2019-04-11T18:00:50.545Z,102513.95
2019-04-11T18:03:24.254Z,102515.91
2019-04-11T18:05:58.093Z,102515.13
2019-04-11T18:08:31.947Z,102516.29
2019-04-11T18:11:05.935Z,102509.13
2019-04-11T18:13:39.641Z,102518.63
2019-04-11T18:16:13.385Z,102520.64
2019-04-11T18:18:47.112Z,102511.92
2019-04-11T18:21:20.863Z,102511.92
2019-04-11T18:23:54.716Z,102524.23
2019-04-11T18:26:28.867Z,102526.31
2019-04-11T18:29:02.630Z,102538.61
2019-04-11T18:31:36.360Z,102539.68
2019-04-11T18:34:10.139Z,102539.68
2019-04-11T18:36:44.134Z,102544.45
2019-04-11T18:39:18.191Z,102549.59
2019-04-11T18:41:52.001Z,102551.59
2019-04-11T18:44:25.704Z,102562.86
2019-04-11T18:46:59.450Z,102558.03
2019-04-11T18:49:33.321Z,102562.36
2019-04-11T18:52:18.988Z,102573.04
2019-04-11T18:54:42.783Z,102573.23
2019-04-11T18:57:16.537Z,102577.44
2019-04-11T18:59:50.236Z,102577.16
2019-04-11T19:02:24.219Z,102585.34
2019-04-11T19:04:58.261Z,102584.47
2019-04-11T19:07:32.043Z,102587.95
2019-04-11T19:10:06.802Z,102590.05
2019-04-11T19:12:40.604Z,102594.28
2019-04-11T19:15:16.879Z,102598.69
2019-04-11T19:18:00.430Z,102603.05
2019-04-11T19:20:26.376Z,102599.18
2019-04-11T19:23:00.195Z,102604.95
2019-04-11T19:25:33.986Z,102611.69
2019-04-11T19:28:08.009Z,102616.27
2019-04-11T19:30:42.499Z,102613.66
2019-04-11T19:33:16.253Z,102613.27
2019-04-11T19:35:50.034Z,102615.17
2019-04-11T19:38:26.114Z,102611.53
2019-04-11T19:40:59.822Z,102618.25
2019-04-11T19:43:33.563Z,102620.06
2019-04-11T19:46:07.283Z,102618.17
2019-04-11T19:48:41.139Z,102616.13
2019-04-11T19:51:14.856Z,102611.19
2019-04-11T19:53:49.050Z,102617.28
2019-04-11T19:56:31.296Z,102620.28
2019-04-11T19:59:05.125Z,102617.20
2019-04-11T20:01:39.154Z,102623.48
2019-04-11T20:04:12.904Z,102622.06
2019-04-11T20:06:46.617Z,102619.38
2019-04-11T20:09:20.732Z,102622.06
2019-04-11T20:11:54.518Z,102618.30
2019-04-11T20:14:28.279Z,102620.13
2019-04-11T20:17:02.240Z,102626.80
2019-04-11T20:19:35.981Z,102624.17
2019-04-11T20:22:09.699Z,102619.90
2019-04-11T20:24:46.783Z,102620.16
2019-04-11T20:27:20.385Z,102624.34
2019-04-11T20:29:55.403Z,102629.40
2019-04-11T20:32:30.543Z,102623.78
2019-04-11T20:35:09.401Z,102623.37
2019-04-11T20:37:44.465Z,102620.31
2019-04-11T20:40:18.889Z,102625.10
2019-04-11T20:42:54.328Z,102619.19
2019-04-11T20:45:29.370Z,102621.16
2019-04-11T20:48:03.165Z,102621.48
2019-04-11T20:50:36.909Z,102623.70
2019-04-11T20:53:13.026Z,102625.66
2019-04-11T20:55:50.668Z,102625.01
2019-04-11T20:58:27.569Z,102623.20
2019-04-11T21:01:00.134Z,102626.28
2019-04-11T21:03:33.839Z,102626.68
2019-04-11T21:06:07.621Z,102625.89
2019-04-11T21:08:41.364Z,102628.37
2019-04-11T21:11:15.190Z,102624.41
2019-04-11T21:13:48.903Z,102625.03
2019-04-11T21:16:22.644Z,102623.76
2019-04-11T21:18:56.368Z,102629.45
2019-04-11T21:21:30.134Z,102615.94
2019-04-11T21:24:03.929Z,102617.29
2019-04-11T21:26:37.991Z,102624.33
2019-04-11T21:29:11.708Z,102624.00
2019-04-11T21:31:45.712Z,102625.42
2019-04-11T21:34:19.426Z,102627.17
2019-04-11T21:36:53.187Z,102622.34
2019-04-11T21:39:26.904Z,102629.64
2019-04-11T21:42:01.084Z,102628.11
2019-04-11T21:44:36.774Z,102628.11
2019-04-11T21:47:10.670Z,102632.14
2019-04-11T21:49:44.389Z,102631.45
2019-04-11T21:52:18.404Z,102625.52
2019-04-11T21:54:52.192Z,102627.09
2019-04-11T21:57:26.049Z,102636.43
2019-04-11T22:00:01.605Z,102624.08
2019-04-11T22:02:35.689Z,102631.82
2019-04-11T22:05:09.812Z,102629.23
2019-04-11T22:07:43.668Z,102634.36
2019-04-11T22:10:17.446Z,102618.39
2019-04-11T22:12:51.205Z,102639.66
2019-04-11T22:15:25.005Z,102637.45
2019-04-11T22:17:58.795Z,102637.84
2019-04-11T22:20:32.839Z,102632.77
2019-04-11T22:23:06.851Z,102629.47
2019-04-11T22:25:40.643Z,102632.70
2019-04-11T22:28:14.390Z,102630.23
2019-04-11T22:30:48.835Z,102631.50
2019-04-11T22:33:36.129Z,102636.87
2019-04-11T22:36:10.133Z,102634.98
2019-04-11T22:38:43.853Z,102637.42
2019-04-11T22:41:17.910Z,102633.94
2019-04-11T22:43:51.755Z,102639.09
2019-04-11T22:46:25.749Z,102638.30
2019-04-11T22:48:59.747Z,102641.59
2019-04-11T22:51:33.465Z,102640.33
2019-04-11T22:54:07.227Z,102638.12
2019-04-11T22:56:41.897Z,102637.09
2019-04-11T22:59:16.163Z,102642.41
2019-04-11T23:01:50.867Z,102638.59
2019-04-11T23:04:24.628Z,102643.42
2019-04-11T23:06:58.357Z,102642.88
2019-04-11T23:09:32.097Z,102656.63
2019-04-11T23:12:06.153Z,102643.27
2019-04-11T23:14:39.917Z,102650.75
2019-04-11T23:17:14.206Z,102651.95
2019-04-11T23:19:48.583Z,102650.20
2019-04-11T23:22:22.581Z,102653.03
2019-04-11T23:24:56.333Z,102654.78
2019-04-11T23:27:30.048Z,102657.94
2019-04-11T23:30:04.412Z,102656.70
2019-04-11T23:32:38.076Z,102655.50
2019-04-11T23:35:11.899Z,102656.99
2019-04-11T23:37:52.181Z,102656.81
2019-04-11T23:40:25.963Z,102663.99
2019-04-11T23:42:59.696Z,102662.98
2019-04-11T23:45:33.886Z,102655.97
2019-04-11T23:48:07.595Z,102666.47
2019-04-11T23:50:41.353Z,102661.70
2019-04-11T23:53:15.071Z,102658.16
2019-04-11T23:55:49.164Z,102662.39
2019-04-11T23:58:22.880Z,102662.33
